sensor_id;sensor_type;location;lat;lon;timestamp;temperature;humidity
20911;DHT22;10615;42.702;23.314;2024-01-07T00:00:45;7.90;96.80
20911;DHT22;10615;42.702;23.314;2024-01-07T00:01:47;8.00;96.80
20911;DHT22;10615;42.702;23.314;2024-01-07T00:02:48;8.00;96.70
20911;DHT22;10615;42.702;23.314;2024-01-07T00:03:50;7.90;96.50
20911;DHT22;10615;42.702;23.314;2024-01-07T00:04:51;7.90;96.50
20911;DHT22;10615;42.702;23.314;2024-01-07T00:05:51;7.90;96.40
20911;DHT22;10615;42.702;23.314;2024-01-07T00:06:52;7.80;96.30
20911;DHT22;10615;42.702;23.314;2024-01-07T00:07:53;7.70;96.20
20911;DHT22;10615;42.702;23.314;2024-01-07T00:08:54;7.70;96.40
20911;DHT22;10615;42.702;23.314;2024-01-07T00:09:54;7.70;96.50
20911;DHT22;10615;42.702;23.314;2024-01-07T00:10:55;7.60;96.60
20911;DHT22;10615;42.702;23.314;2024-01-07T00:11:56;7.60;96.70
20911;DHT22;10615;42.702;23.314;2024-01-07T00:12:56;7.60;96.80
20911;DHT22;10615;42.702;23.314;2024-01-07T00:13:57;7.60;96.90
20911;DHT22;10615;42.702;23.314;2024-01-07T00:14:58;7.60;97.00
20911;DHT22;10615;42.702;23.314;2024-01-07T00:15:59;7.60;97.20
20911;DHT22;10615;42.702;23.314;2024-01-07T00:17:00;7.70;97.20
20911;DHT22;10615;42.702;23.314;2024-01-07T00:18:01;7.70;97.30
20911;DHT22;10615;42.702;23.314;2024-01-07T00:19:01;7.70;97.20
20911;DHT22;10615;42.702;23.314;2024-01-07T00:20:02;7.80;97.20
20911;DHT22;10615;42.702;23.314;2024-01-07T00:21:04;7.80;97.30
20911;DHT22;10615;42.702;23.314;2024-01-07T00:22:05;7.90;97.20
20911;DHT22;10615;42.702;23.314;2024-01-07T00:23:05;7.90;97.10
20911;DHT22;10615;42.702;23.314;2024-01-07T00:24:06;7.90;97.10
20911;DHT22;10615;42.702;23.314;2024-01-07T00:25:07;7.90;97.00
20911;DHT22;10615;42.702;23.314;2024-01-07T00:26:09;7.90;96.90
20911;DHT22;10615;42.702;23.314;2024-01-07T00:27:10;7.80;96.80
20911;DHT22;10615;42.702;23.314;2024-01-07T00:28:11;7.80;96.80
20911;DHT22;10615;42.702;23.314;2024-01-07T00:29:12;7.70;96.70
20911;DHT22;10615;42.702;23.314;2024-01-07T00:30:13;7.70;96.60
20911;DHT22;10615;42.702;23.314;2024-01-07T00:31:14;7.70;96.70
20911;DHT22;10615;42.702;23.314;2024-01-07T00:32:15;7.70;96.70
20911;DHT22;10615;42.702;23.314;2024-01-07T00:33:15;7.70;96.70
20911;DHT22;10615;42.702;23.314;2024-01-07T00:34:16;7.60;96.70
20911;DHT22;10615;42.702;23.314;2024-01-07T00:35:17;7.60;96.80
20911;DHT22;10615;42.702;23.314;2024-01-07T00:36:18;7.60;97.00
20911;DHT22;10615;42.702;23.314;2024-01-07T00:37:19;7.60;97.10
20911;DHT22;10615;42.702;23.314;2024-01-07T00:38:19;7.70;97.20
20911;DHT22;10615;42.702;23.314;2024-01-07T00:39:21;7.70;97.30
20911;DHT22;10615;42.702;23.314;2024-01-07T00:40:22;7.70;97.40
20911;DHT22;10615;42.702;23.314;2024-01-07T00:41:23;7.70;97.30
20911;DHT22;10615;42.702;23.314;2024-01-07T00:42:25;7.80;97.40
20911;DHT22;10615;42.702;23.314;2024-01-07T00:43:25;7.80;97.40
20911;DHT22;10615;42.702;23.314;2024-01-07T00:44:26;7.80;97.40
20911;DHT22;10615;42.702;23.314;2024-01-07T00:45:27;7.80;97.30
20911;DHT22;10615;42.702;23.314;2024-01-07T00:46:28;7.80;97.30
20911;DHT22;10615;42.702;23.314;2024-01-07T00:47:28;7.70;97.20
20911;DHT22;10615;42.702;23.314;2024-01-07T00:48:29;7.70;97.20
20911;DHT22;10615;42.702;23.314;2024-01-07T00:49:30;7.70;97.20
20911;DHT22;10615;42.702;23.314;2024-01-07T00:50:31;7.60;97.20
20911;DHT22;10615;42.702;23.314;2024-01-07T00:51:32;7.60;97.30
20911;DHT22;10615;42.702;23.314;2024-01-07T00:52:33;7.60;97.30
20911;DHT22;10615;42.702;23.314;2024-01-07T00:53:33;7.50;97.40
20911;DHT22;10615;42.702;23.314;2024-01-07T00:54:34;7.50;97.50
20911;DHT22;10615;42.702;23.314;2024-01-07T00:55:35;7.50;97.60
20911;DHT22;10615;42.702;23.314;2024-01-07T00:56:36;7.50;97.70
20911;DHT22;10615;42.702;23.314;2024-01-07T00:57:36;7.40;97.80
20911;DHT22;10615;42.702;23.314;2024-01-07T00:58:37;7.50;98.00
20911;DHT22;10615;42.702;23.314;2024-01-07T00:59:38;7.50;98.10
20911;DHT22;10615;42.702;23.314;2024-01-07T01:00:39;7.50;98.10
20911;DHT22;10615;42.702;23.314;2024-01-07T01:01:39;7.50;98.30
20911;DHT22;10615;42.702;23.314;2024-01-07T01:02:40;7.50;98.90
20911;DHT22;10615;42.702;23.314;2024-01-07T01:03:41;7.50;98.60
20911;DHT22;10615;42.702;23.314;2024-01-07T01:04:42;7.60;98.70
20911;DHT22;10615;42.702;23.314;2024-01-07T01:05:42;7.60;98.70
20911;DHT22;10615;42.702;23.314;2024-01-07T01:06:43;7.70;98.70
20911;DHT22;10615;42.702;23.314;2024-01-07T01:07:44;7.70;98.60
20911;DHT22;10615;42.702;23.314;2024-01-07T01:08:45;7.80;98.60
20911;DHT22;10615;42.702;23.314;2024-01-07T01:09:45;7.70;98.40
20911;DHT22;10615;42.702;23.314;2024-01-07T01:10:46;7.70;98.30
20911;DHT22;10615;42.702;23.314;2024-01-07T01:11:47;7.80;98.20
20911;DHT22;10615;42.702;23.314;2024-01-07T01:12:47;7.70;98.10
20911;DHT22;10615;42.702;23.314;2024-01-07T01:13:48;7.70;98.00
20911;DHT22;10615;42.702;23.314;2024-01-07T01:14:49;7.70;98.00
20911;DHT22;10615;42.702;23.314;2024-01-07T01:15:50;7.70;97.90
20911;DHT22;10615;42.702;23.314;2024-01-07T01:16:51;7.70;97.90
20911;DHT22;10615;42.702;23.314;2024-01-07T01:17:51;7.70;97.90
20911;DHT22;10615;42.702;23.314;2024-01-07T01:18:53;7.60;97.90
20911;DHT22;10615;42.702;23.314;2024-01-07T01:19:53;7.60;98.10
20911;DHT22;10615;42.702;23.314;2024-01-07T01:20:55;7.60;98.20
20911;DHT22;10615;42.702;23.314;2024-01-07T01:21:56;7.60;98.30
20911;DHT22;10615;42.702;23.314;2024-01-07T01:22:57;7.70;98.40
20911;DHT22;10615;42.702;23.314;2024-01-07T01:23:58;7.70;98.40
20911;DHT22;10615;42.702;23.314;2024-01-07T01:24:59;7.70;98.40
20911;DHT22;10615;42.702;23.314;2024-01-07T01:26:00;7.70;98.50
20911;DHT22;10615;42.702;23.314;2024-01-07T01:27:01;7.80;98.40
20911;DHT22;10615;42.702;23.314;2024-01-07T01:28:02;7.80;98.40
20911;DHT22;10615;42.702;23.314;2024-01-07T01:29:03;7.80;98.40
20911;DHT22;10615;42.702;23.314;2024-01-07T01:30:04;7.80;98.30
20911;DHT22;10615;42.702;23.314;2024-01-07T01:31:05;7.80;98.20
20911;DHT22;10615;42.702;23.314;2024-01-07T01:32:06;7.80;98.20
20911;DHT22;10615;42.702;23.314;2024-01-07T01:33:07;7.80;98.10
20911;DHT22;10615;42.702;23.314;2024-01-07T01:34:08;7.80;98.00
20911;DHT22;10615;42.702;23.314;2024-01-07T01:35:09;7.70;97.90
20911;DHT22;10615;42.702;23.314;2024-01-07T01:36:10;7.70;97.90
20911;DHT22;10615;42.702;23.314;2024-01-07T01:37:10;7.70;97.90
20911;DHT22;10615;42.702;23.314;2024-01-07T01:38:11;7.60;97.90
20911;DHT22;10615;42.702;23.314;2024-01-07T01:39:12;7.60;98.00
20911;DHT22;10615;42.702;23.314;2024-01-07T01:40:13;7.60;98.10
20911;DHT22;10615;42.702;23.314;2024-01-07T01:41:14;7.60;98.10
20911;DHT22;10615;42.702;23.314;2024-01-07T01:42:15;7.60;98.20
20911;DHT22;10615;42.702;23.314;2024-01-07T01:43:25;7.60;98.30
20911;DHT22;10615;42.702;23.314;2024-01-07T01:44:26;7.60;98.40
20911;DHT22;10615;42.702;23.314;2024-01-07T01:45:29;7.60;98.50
20911;DHT22;10615;42.702;23.314;2024-01-07T01:46:30;7.60;98.70
20911;DHT22;10615;42.702;23.314;2024-01-07T01:47:32;7.60;98.70
20911;DHT22;10615;42.702;23.314;2024-01-07T01:48:33;7.70;98.80
20911;DHT22;10615;42.702;23.314;2024-01-07T01:49:35;7.70;98.80
20911;DHT22;10615;42.702;23.314;2024-01-07T01:50:38;7.70;98.70
20911;DHT22;10615;42.702;23.314;2024-01-07T01:51:39;7.70;98.70
20911;DHT22;10615;42.702;23.314;2024-01-07T01:52:40;7.70;98.70
20911;DHT22;10615;42.702;23.314;2024-01-07T01:53:43;7.70;98.60
20911;DHT22;10615;42.702;23.314;2024-01-07T01:54:45;7.80;98.60
20911;DHT22;10615;42.702;23.314;2024-01-07T01:55:46;7.70;98.40
20911;DHT22;10615;42.702;23.314;2024-01-07T01:56:47;7.70;98.30
20911;DHT22;10615;42.702;23.314;2024-01-07T01:57:49;7.70;98.20
20911;DHT22;10615;42.702;23.314;2024-01-07T01:58:51;7.60;98.20
20911;DHT22;10615;42.702;23.314;2024-01-07T01:59:51;7.60;98.70
20911;DHT22;10615;42.702;23.314;2024-01-07T02:00:53;7.60;98.30
20911;DHT22;10615;42.702;23.314;2024-01-07T02:01:54;7.60;98.40
20911;DHT22;10615;42.702;23.314;2024-01-07T02:02:55;7.50;98.40
20911;DHT22;10615;42.702;23.314;2024-01-07T02:03:56;7.50;98.60
20911;DHT22;10615;42.702;23.314;2024-01-07T02:04:57;7.50;98.70
20911;DHT22;10615;42.702;23.314;2024-01-07T02:05:58;7.50;98.80
20911;DHT22;10615;42.702;23.314;2024-01-07T02:07:00;7.60;98.90
20911;DHT22;10615;42.702;23.314;2024-01-07T02:08:01;7.60;98.90
20911;DHT22;10615;42.702;23.314;2024-01-07T02:09:02;7.60;99.00
20911;DHT22;10615;42.702;23.314;2024-01-07T02:10:04;7.70;99.00
20911;DHT22;10615;42.702;23.314;2024-01-07T02:11:18;7.70;99.00
20911;DHT22;10615;42.702;23.314;2024-01-07T02:12:19;7.80;98.90
20911;DHT22;10615;42.702;23.314;2024-01-07T02:13:20;7.80;98.90
20911;DHT22;10615;42.702;23.314;2024-01-07T02:14:21;7.80;98.80
20911;DHT22;10615;42.702;23.314;2024-01-07T02:15:22;7.80;98.70
20911;DHT22;10615;42.702;23.314;2024-01-07T02:16:22;7.80;98.60
20911;DHT22;10615;42.702;23.314;2024-01-07T02:17:23;7.70;98.40
20911;DHT22;10615;42.702;23.314;2024-01-07T02:18:24;7.70;98.30
20911;DHT22;10615;42.702;23.314;2024-01-07T02:19:25;7.70;98.30
20911;DHT22;10615;42.702;23.314;2024-01-07T02:20:25;7.70;98.30
20911;DHT22;10615;42.702;23.314;2024-01-07T02:21:26;7.60;98.20
20911;DHT22;10615;42.702;23.314;2024-01-07T02:22:27;7.60;98.30
20911;DHT22;10615;42.702;23.314;2024-01-07T02:23:28;7.60;98.40
20911;DHT22;10615;42.702;23.314;2024-01-07T02:24:28;7.50;98.40
20911;DHT22;10615;42.702;23.314;2024-01-07T02:25:37;7.50;98.60
20911;DHT22;10615;42.702;23.314;2024-01-07T02:26:37;7.50;98.80
20911;DHT22;10615;42.702;23.314;2024-01-07T02:27:38;7.50;99.00
20911;DHT22;10615;42.702;23.314;2024-01-07T02:28:39;7.50;99.10
20911;DHT22;10615;42.702;23.314;2024-01-07T02:29:40;7.60;99.60
20911;DHT22;10615;42.702;23.314;2024-01-07T02:30:40;7.60;99.30
20911;DHT22;10615;42.702;23.314;2024-01-07T02:31:41;7.70;99.30
20911;DHT22;10615;42.702;23.314;2024-01-07T02:32:42;7.70;99.30
20911;DHT22;10615;42.702;23.314;2024-01-07T02:33:42;7.70;99.30
20911;DHT22;10615;42.702;23.314;2024-01-07T02:34:44;7.80;99.20
20911;DHT22;10615;42.702;23.314;2024-01-07T02:35:44;7.80;99.10
20911;DHT22;10615;42.702;23.314;2024-01-07T02:36:45;7.90;99.00
20911;DHT22;10615;42.702;23.314;2024-01-07T02:37:46;7.90;98.90
20911;DHT22;10615;42.702;23.314;2024-01-07T02:38:47;7.90;98.70
20911;DHT22;10615;42.702;23.314;2024-01-07T02:39:47;7.90;98.50
20911;DHT22;10615;42.702;23.314;2024-01-07T02:40:48;7.80;98.30
20911;DHT22;10615;42.702;23.314;2024-01-07T02:41:49;7.80;98.20
20911;DHT22;10615;42.702;23.314;2024-01-07T02:42:50;7.80;98.20
20911;DHT22;10615;42.702;23.314;2024-01-07T02:43:51;7.70;98.30
20911;DHT22;10615;42.702;23.314;2024-01-07T02:44:52;7.70;98.40
20911;DHT22;10615;42.702;23.314;2024-01-07T02:45:53;7.60;98.40
20911;DHT22;10615;42.702;23.314;2024-01-07T02:46:53;7.60;98.70
20911;DHT22;10615;42.702;23.314;2024-01-07T02:47:54;7.60;98.80
20911;DHT22;10615;42.702;23.314;2024-01-07T02:48:55;7.60;98.90
20911;DHT22;10615;42.702;23.314;2024-01-07T02:49:56;7.60;99.10
20911;DHT22;10615;42.702;23.314;2024-01-07T02:50:56;7.60;99.20
20911;DHT22;10615;42.702;23.314;2024-01-07T02:51:57;7.70;99.30
20911;DHT22;10615;42.702;23.314;2024-01-07T02:52:58;7.70;99.40
20911;DHT22;10615;42.702;23.314;2024-01-07T02:53:59;7.70;99.40
20911;DHT22;10615;42.702;23.314;2024-01-07T02:54:59;7.70;99.40
20911;DHT22;10615;42.702;23.314;2024-01-07T02:56:02;7.70;99.40
20911;DHT22;10615;42.702;23.314;2024-01-07T02:57:03;7.80;99.40
20911;DHT22;10615;42.702;23.314;2024-01-07T02:58:03;7.80;99.30
20911;DHT22;10615;42.702;23.314;2024-01-07T02:59:04;7.80;99.40
20911;DHT22;10615;42.702;23.314;2024-01-07T03:00:05;7.80;99.30
20911;DHT22;10615;42.702;23.314;2024-01-07T03:01:10;7.80;99.20
20911;DHT22;10615;42.702;23.314;2024-01-07T03:02:11;7.80;99.10
20911;DHT22;10615;42.702;23.314;2024-01-07T03:03:11;7.80;99.10
20911;DHT22;10615;42.702;23.314;2024-01-07T03:04:15;7.70;99.00
20911;DHT22;10615;42.702;23.314;2024-01-07T03:05:16;7.70;99.10
20911;DHT22;10615;42.702;23.314;2024-01-07T03:06:17;7.60;99.10
20911;DHT22;10615;42.702;23.314;2024-01-07T03:07:17;7.60;99.20
20911;DHT22;10615;42.702;23.314;2024-01-07T03:08:18;7.60;99.30
20911;DHT22;10615;42.702;23.314;2024-01-07T03:09:19;7.60;99.40
20911;DHT22;10615;42.702;23.314;2024-01-07T03:10:20;7.60;99.50
20911;DHT22;10615;42.702;23.314;2024-01-07T03:11:20;7.60;99.60
20911;DHT22;10615;42.702;23.314;2024-01-07T03:12:21;7.60;99.70
20911;DHT22;10615;42.702;23.314;2024-01-07T03:13:22;7.70;99.80
20911;DHT22;10615;42.702;23.314;2024-01-07T03:14:23;7.70;99.90
20911;DHT22;10615;42.702;23.314;2024-01-07T03:15:23;7.70;99.90
20911;DHT22;10615;42.702;23.314;2024-01-07T03:16:25;7.80;99.90
20911;DHT22;10615;42.702;23.314;2024-01-07T03:17:27;7.80;99.90
20911;DHT22;10615;42.702;23.314;2024-01-07T03:18:27;7.80;99.90
20911;DHT22;10615;42.702;23.314;2024-01-07T03:19:30;7.90;99.90
20911;DHT22;10615;42.702;23.314;2024-01-07T03:20:30;7.90;99.90
20911;DHT22;10615;42.702;23.314;2024-01-07T03:21:31;8.00;99.90
20911;DHT22;10615;42.702;23.314;2024-01-07T03:22:32;8.00;99.90
20911;DHT22;10615;42.702;23.314;2024-01-07T03:23:33;8.00;99.90
20911;DHT22;10615;42.702;23.314;2024-01-07T03:24:34;8.00;99.90
20911;DHT22;10615;42.702;23.314;2024-01-07T03:25:34;8.00;99.90
20911;DHT22;10615;42.702;23.314;2024-01-07T03:26:35;8.00;99.80
20911;DHT22;10615;42.702;23.314;2024-01-07T03:27:36;7.90;99.90
20911;DHT22;10615;42.702;23.314;2024-01-07T03:28:37;7.90;99.80
20911;DHT22;10615;42.702;23.314;2024-01-07T03:29:38;7.90;99.90
20911;DHT22;10615;42.702;23.314;2024-01-07T03:30:40;7.90;99.90
20911;DHT22;10615;42.702;23.314;2024-01-07T03:31:40;7.80;99.90
20911;DHT22;10615;42.702;23.314;2024-01-07T03:32:41;7.90;99.90
20911;DHT22;10615;42.702;23.314;2024-01-07T03:33:42;7.90;99.90
20911;DHT22;10615;42.702;23.314;2024-01-07T03:34:43;7.90;99.90
20911;DHT22;10615;42.702;23.314;2024-01-07T03:35:44;8.00;99.90
20911;DHT22;10615;42.702;23.314;2024-01-07T03:36:46;8.00;99.90
20911;DHT22;10615;42.702;23.314;2024-01-07T03:37:46;8.00;99.90
20911;DHT22;10615;42.702;23.314;2024-01-07T03:38:47;8.10;99.90
20911;DHT22;10615;42.702;23.314;2024-01-07T03:39:48;8.10;99.90
20911;DHT22;10615;42.702;23.314;2024-01-07T03:40:49;8.20;99.90
20911;DHT22;10615;42.702;23.314;2024-01-07T03:41:55;8.20;99.90
20911;DHT22;10615;42.702;23.314;2024-01-07T03:42:56;8.30;99.90
20911;DHT22;10615;42.702;23.314;2024-01-07T03:43:57;8.30;99.90
20911;DHT22;10615;42.702;23.314;2024-01-07T03:44:57;8.40;99.90
20911;DHT22;10615;42.702;23.314;2024-01-07T03:45:58;8.40;99.90
20911;DHT22;10615;42.702;23.314;2024-01-07T03:46:59;8.40;99.90
20911;DHT22;10615;42.702;23.314;2024-01-07T03:48:00;8.50;99.90
20911;DHT22;10615;42.702;23.314;2024-01-07T03:49:00;8.40;99.90
20911;DHT22;10615;42.702;23.314;2024-01-07T03:50:01;8.40;99.90
20911;DHT22;10615;42.702;23.314;2024-01-07T03:51:02;8.50;99.90
20911;DHT22;10615;42.702;23.314;2024-01-07T03:52:04;8.50;99.90
20911;DHT22;10615;42.702;23.314;2024-01-07T03:53:05;8.50;99.90
20911;DHT22;10615;42.702;23.314;2024-01-07T03:54:06;8.40;99.90
20911;DHT22;10615;42.702;23.314;2024-01-07T03:55:07;8.50;99.90
20911;DHT22;10615;42.702;23.314;2024-01-07T03:56:07;8.40;99.90
20911;DHT22;10615;42.702;23.314;2024-01-07T03:57:08;8.50;99.90
20911;DHT22;10615;42.702;23.314;2024-01-07T03:58:09;8.50;99.90
20911;DHT22;10615;42.702;23.314;2024-01-07T03:59:10;8.50;99.90
20911;DHT22;10615;42.702;23.314;2024-01-07T04:00:10;8.60;99.90
20911;DHT22;10615;42.702;23.314;2024-01-07T04:01:16;8.60;99.90
20911;DHT22;10615;42.702;23.314;2024-01-07T04:02:17;8.70;99.90
20911;DHT22;10615;42.702;23.314;2024-01-07T04:03:18;8.70;99.90
20911;DHT22;10615;42.702;23.314;2024-01-07T04:04:19;8.80;99.90
20911;DHT22;10615;42.702;23.314;2024-01-07T04:05:19;8.80;99.90
20911;DHT22;10615;42.702;23.314;2024-01-07T04:06:20;8.90;99.90
20911;DHT22;10615;42.702;23.314;2024-01-07T04:07:21;8.90;99.90
20911;DHT22;10615;42.702;23.314;2024-01-07T04:08:22;8.90;99.90
20911;DHT22;10615;42.702;23.314;2024-01-07T04:09:23;9.00;99.90
20911;DHT22;10615;42.702;23.314;2024-01-07T04:10:23;9.00;99.90
20911;DHT22;10615;42.702;23.314;2024-01-07T04:11:24;9.00;99.90
20911;DHT22;10615;42.702;23.314;2024-01-07T04:12:25;9.00;99.90
20911;DHT22;10615;42.702;23.314;2024-01-07T04:13:25;9.00;99.90
20911;DHT22;10615;42.702;23.314;2024-01-07T04:14:26;9.00;99.90
20911;DHT22;10615;42.702;23.314;2024-01-07T04:15:28;8.90;99.90
20911;DHT22;10615;42.702;23.314;2024-01-07T04:16:28;8.90;99.90
20911;DHT22;10615;42.702;23.314;2024-01-07T04:17:29;8.90;99.90
20911;DHT22;10615;42.702;23.314;2024-01-07T04:18:30;8.90;99.90
20911;DHT22;10615;42.702;23.314;2024-01-07T04:19:30;8.90;99.90
20911;DHT22;10615;42.702;23.314;2024-01-07T04:20:31;8.90;99.90
20911;DHT22;10615;42.702;23.314;2024-01-07T04:21:32;8.90;99.90
20911;DHT22;10615;42.702;23.314;2024-01-07T04:22:33;9.00;99.90
20911;DHT22;10615;42.702;23.314;2024-01-07T04:23:34;8.90;99.90
20911;DHT22;10615;42.702;23.314;2024-01-07T04:24:34;9.00;99.90
20911;DHT22;10615;42.702;23.314;2024-01-07T04:25:35;9.00;99.90
20911;DHT22;10615;42.702;23.314;2024-01-07T04:26:36;9.00;99.90
20911;DHT22;10615;42.702;23.314;2024-01-07T04:27:37;9.10;99.90
20911;DHT22;10615;42.702;23.314;2024-01-07T04:28:41;9.10;99.90
20911;DHT22;10615;42.702;23.314;2024-01-07T04:29:42;9.10;99.90
20911;DHT22;10615;42.702;23.314;2024-01-07T04:30:43;9.10;99.90
20911;DHT22;10615;42.702;23.314;2024-01-07T04:31:44;9.10;99.90
20911;DHT22;10615;42.702;23.314;2024-01-07T04:32:44;9.20;99.90
20911;DHT22;10615;42.702;23.314;2024-01-07T04:33:45;9.10;99.90
20911;DHT22;10615;42.702;23.314;2024-01-07T04:34:46;9.10;99.90
20911;DHT22;10615;42.702;23.314;2024-01-07T04:35:47;9.10;99.90
20911;DHT22;10615;42.702;23.314;2024-01-07T04:36:48;9.00;99.90
20911;DHT22;10615;42.702;23.314;2024-01-07T04:37:48;9.00;99.90
20911;DHT22;10615;42.702;23.314;2024-01-07T04:38:49;9.00;99.90
20911;DHT22;10615;42.702;23.314;2024-01-07T04:39:50;9.00;99.90
20911;DHT22;10615;42.702;23.314;2024-01-07T04:40:51;9.00;99.90
20911;DHT22;10615;42.702;23.314;2024-01-07T04:41:52;9.00;99.90
20911;DHT22;10615;42.702;23.314;2024-01-07T04:42:53;9.00;99.90
20911;DHT22;10615;42.702;23.314;2024-01-07T04:43:53;9.00;99.90
20911;DHT22;10615;42.702;23.314;2024-01-07T04:44:54;9.00;99.90
20911;DHT22;10615;42.702;23.314;2024-01-07T04:45:55;9.00;99.90
20911;DHT22;10615;42.702;23.314;2024-01-07T04:46:56;9.10;99.90
20911;DHT22;10615;42.702;23.314;2024-01-07T04:47:56;9.10;99.90
20911;DHT22;10615;42.702;23.314;2024-01-07T04:48:57;9.10;99.90
20911;DHT22;10615;42.702;23.314;2024-01-07T04:49:58;9.10;99.90
20911;DHT22;10615;42.702;23.314;2024-01-07T04:50:59;9.10;99.90
20911;DHT22;10615;42.702;23.314;2024-01-07T04:52:00;9.20;99.90
20911;DHT22;10615;42.702;23.314;2024-01-07T04:53:01;9.20;99.90
20911;DHT22;10615;42.702;23.314;2024-01-07T04:54:01;9.20;99.90
20911;DHT22;10615;42.702;23.314;2024-01-07T04:55:02;9.20;99.90
20911;DHT22;10615;42.702;23.314;2024-01-07T04:56:03;9.20;99.90
20911;DHT22;10615;42.702;23.314;2024-01-07T04:57:04;9.20;99.90
20911;DHT22;10615;42.702;23.314;2024-01-07T04:58:05;9.10;99.90
20911;DHT22;10615;42.702;23.314;2024-01-07T04:59:05;9.10;99.90
20911;DHT22;10615;42.702;23.314;2024-01-07T05:00:06;9.10;99.90
20911;DHT22;10615;42.702;23.314;2024-01-07T05:01:07;9.00;99.90
20911;DHT22;10615;42.702;23.314;2024-01-07T05:02:08;9.00;99.90
20911;DHT22;10615;42.702;23.314;2024-01-07T05:03:09;8.90;99.90
20911;DHT22;10615;42.702;23.314;2024-01-07T05:04:09;8.90;99.90
20911;DHT22;10615;42.702;23.314;2024-01-07T05:05:11;8.90;99.90
20911;DHT22;10615;42.702;23.314;2024-01-07T05:06:12;8.90;99.90
20911;DHT22;10615;42.702;23.314;2024-01-07T05:07:12;8.90;99.90
20911;DHT22;10615;42.702;23.314;2024-01-07T05:08:13;8.90;99.90
20911;DHT22;10615;42.702;23.314;2024-01-07T05:09:14;8.90;99.90
20911;DHT22;10615;42.702;23.314;2024-01-07T05:10:15;9.00;99.90
20911;DHT22;10615;42.702;23.314;2024-01-07T05:11:15;9.00;99.90
20911;DHT22;10615;42.702;23.314;2024-01-07T05:12:17;9.00;99.90
20911;DHT22;10615;42.702;23.314;2024-01-07T05:13:18;9.10;99.90
20911;DHT22;10615;42.702;23.314;2024-01-07T05:14:19;9.10;99.90
20911;DHT22;10615;42.702;23.314;2024-01-07T05:15:19;9.10;99.90
20911;DHT22;10615;42.702;23.314;2024-01-07T05:16:20;9.10;99.90
20911;DHT22;10615;42.702;23.314;2024-01-07T05:17:21;9.10;99.90
20911;DHT22;10615;42.702;23.314;2024-01-07T05:18:25;9.10;99.90
20911;DHT22;10615;42.702;23.314;2024-01-07T05:19:26;9.10;99.90
20911;DHT22;10615;42.702;23.314;2024-01-07T05:20:26;9.00;99.90
20911;DHT22;10615;42.702;23.314;2024-01-07T05:21:27;9.00;99.90
20911;DHT22;10615;42.702;23.314;2024-01-07T05:22:28;8.90;99.90
20911;DHT22;10615;42.702;23.314;2024-01-07T05:23:28;8.90;99.90
20911;DHT22;10615;42.702;23.314;2024-01-07T05:24:29;8.90;99.90
20911;DHT22;10615;42.702;23.314;2024-01-07T05:25:30;8.80;99.90
20911;DHT22;10615;42.702;23.314;2024-01-07T05:26:31;8.80;99.90
20911;DHT22;10615;42.702;23.314;2024-01-07T05:27:31;8.80;99.90
20911;DHT22;10615;42.702;23.314;2024-01-07T05:28:32;8.70;99.90
20911;DHT22;10615;42.702;23.314;2024-01-07T05:29:33;8.80;99.90
20911;DHT22;10615;42.702;23.314;2024-01-07T05:30:36;8.80;99.90
20911;DHT22;10615;42.702;23.314;2024-01-07T05:31:38;8.80;99.90
20911;DHT22;10615;42.702;23.314;2024-01-07T05:32:39;8.80;99.90
20911;DHT22;10615;42.702;23.314;2024-01-07T05:33:39;8.90;99.90
20911;DHT22;10615;42.702;23.314;2024-01-07T05:34:40;8.90;99.90
20911;DHT22;10615;42.702;23.314;2024-01-07T05:35:41;8.90;99.90
20911;DHT22;10615;42.702;23.314;2024-01-07T05:36:42;9.00;99.90
20911;DHT22;10615;42.702;23.314;2024-01-07T05:37:42;9.00;99.90
20911;DHT22;10615;42.702;23.314;2024-01-07T05:38:43;9.00;99.90
20911;DHT22;10615;42.702;23.314;2024-01-07T05:39:44;9.00;99.90
20911;DHT22;10615;42.702;23.314;2024-01-07T05:40:45;9.00;99.90
20911;DHT22;10615;42.702;23.314;2024-01-07T05:41:46;9.00;99.90
20911;DHT22;10615;42.702;23.314;2024-01-07T05:42:46;8.90;99.90
20911;DHT22;10615;42.702;23.314;2024-01-07T05:43:47;8.90;99.90
20911;DHT22;10615;42.702;23.314;2024-01-07T05:44:48;8.80;99.90
20911;DHT22;10615;42.702;23.314;2024-01-07T05:45:49;8.80;99.90
20911;DHT22;10615;42.702;23.314;2024-01-07T05:46:49;8.80;99.90
20911;DHT22;10615;42.702;23.314;2024-01-07T05:47:50;8.80;99.90
20911;DHT22;10615;42.702;23.314;2024-01-07T05:48:51;8.70;99.90
20911;DHT22;10615;42.702;23.314;2024-01-07T05:49:52;8.70;99.90
20911;DHT22;10615;42.702;23.314;2024-01-07T05:50:52;8.70;99.90
20911;DHT22;10615;42.702;23.314;2024-01-07T05:51:53;8.70;99.90
20911;DHT22;10615;42.702;23.314;2024-01-07T05:52:54;8.70;99.90
20911;DHT22;10615;42.702;23.314;2024-01-07T05:53:55;8.80;99.90
20911;DHT22;10615;42.702;23.314;2024-01-07T05:54:56;8.80;99.90
20911;DHT22;10615;42.702;23.314;2024-01-07T05:55:56;8.80;99.90
20911;DHT22;10615;42.702;23.314;2024-01-07T05:56:57;8.90;99.90
20911;DHT22;10615;42.702;23.314;2024-01-07T05:57:58;8.90;99.90
20911;DHT22;10615;42.702;23.314;2024-01-07T05:58:58;8.90;99.90
20911;DHT22;10615;42.702;23.314;2024-01-07T05:59:59;8.90;99.90
20911;DHT22;10615;42.702;23.314;2024-01-07T06:01:00;9.00;99.90
20911;DHT22;10615;42.702;23.314;2024-01-07T06:02:01;9.00;99.90
20911;DHT22;10615;42.702;23.314;2024-01-07T06:03:01;9.00;99.90
20911;DHT22;10615;42.702;23.314;2024-01-07T06:04:02;8.90;99.90
20911;DHT22;10615;42.702;23.314;2024-01-07T06:05:03;8.90;99.90
20911;DHT22;10615;42.702;23.314;2024-01-07T06:06:04;8.90;99.90
20911;DHT22;10615;42.702;23.314;2024-01-07T06:07:06;8.90;99.90
20911;DHT22;10615;42.702;23.314;2024-01-07T06:08:06;8.80;99.90
20911;DHT22;10615;42.702;23.314;2024-01-07T06:09:07;8.80;99.90
20911;DHT22;10615;42.702;23.314;2024-01-07T06:10:08;8.70;99.90
20911;DHT22;10615;42.702;23.314;2024-01-07T06:11:09;8.70;99.90
20911;DHT22;10615;42.702;23.314;2024-01-07T06:12:12;8.60;99.90
20911;DHT22;10615;42.702;23.314;2024-01-07T06:13:13;8.60;99.90
20911;DHT22;10615;42.702;23.314;2024-01-07T06:14:14;8.60;99.90
20911;DHT22;10615;42.702;23.314;2024-01-07T06:15:15;8.60;99.90
20911;DHT22;10615;42.702;23.314;2024-01-07T06:16:16;8.60;99.90
20911;DHT22;10615;42.702;23.314;2024-01-07T06:17:17;8.60;99.90
20911;DHT22;10615;42.702;23.314;2024-01-07T06:18:18;8.60;99.90
20911;DHT22;10615;42.702;23.314;2024-01-07T06:19:19;8.70;99.90
20911;DHT22;10615;42.702;23.314;2024-01-07T06:20:20;8.80;99.90
20911;DHT22;10615;42.702;23.314;2024-01-07T06:21:21;8.80;99.90
20911;DHT22;10615;42.702;23.314;2024-01-07T06:22:21;8.80;99.90
20911;DHT22;10615;42.702;23.314;2024-01-07T06:23:23;8.80;99.90
20911;DHT22;10615;42.702;23.314;2024-01-07T06:24:24;8.80;99.90
20911;DHT22;10615;42.702;23.314;2024-01-07T06:25:25;8.90;99.90